Private Wetterstation Sandau
Wetterdaten: Sonntag, 17.06.2012
Datum Zeit Temp. A. Feuchte A. Luftdruck Regen Wind Richtung Richtung Taupunkt Windchill
17.06.2012 00:01 15,9 C 81 % 1016,0 hPa 0,0 l/m 6,8 km/h (2 Bft) SW 225 12,6 C 15,9 C
17.06.2012 00:06 15,9 C 81 % 1015,8 hPa 0,0 l/m 4,0 km/h (1 Bft) SW 225 12,6 C 15,9 C
17.06.2012 00:11 15,9 C 81 % 1016,1 hPa 0,0 l/m 5,4 km/h (1 Bft) W 270 12,6 C 15,9 C
17.06.2012 00:16 15,8 C 81 % 1016,7 hPa 0,0 l/m 1,8 km/h (1 Bft) W 270 12,5 C 15,8 C
17.06.2012 00:21 15,8 C 81 % 1016,8 hPa 0,0 l/m 7,6 km/h (2 Bft) W-NW 292 12,5 C 15,8 C
17.06.2012 00:26 15,6 C 81 % 1016,8 hPa 0,0 l/m 4,0 km/h (1 Bft) W 270 12,3 C 15,6 C
17.06.2012 00:31 15,6 C 82 % 1016,8 hPa 0,0 l/m 5,8 km/h (2 Bft) W-NW 292 12,5 C 15,6 C
17.06.2012 00:36 15,6 C 82 % 1017,1 hPa 0,0 l/m 6,1 km/h (2 Bft) W-SW 247 12,5 C 15,6 C
17.06.2012 00:41 15,5 C 82 % 1017,1 hPa 0,0 l/m 5,8 km/h (2 Bft) W-SW 247 12,4 C 15,5 C
17.06.2012 00:46 15,5 C 82 % 1016,9 hPa 0,0 l/m 3,2 km/h (1 Bft) SW 225 12,4 C 15,5 C
17.06.2012 00:51 15,4 C 82 % 1016,8 hPa 0,0 l/m 4,3 km/h (1 Bft) SW 225 12,3 C 15,4 C
17.06.2012 00:56 15,4 C 82 % 1016,7 hPa 0,0 l/m 6,5 km/h (2 Bft) S-SW 202 12,3 C 15,4 C
17.06.2012 01:01 15,4 C 82 % 1016,8 hPa 0,0 l/m 1,4 km/h (1 Bft) S-SW 202 12,3 C 15,4 C
17.06.2012 01:06 15,3 C 82 % 1017,0 hPa 0,0 l/m 7,2 km/h (2 Bft) S-SW 202 12,2 C 15,3 C
17.06.2012 01:11 15,3 C 82 % 1017,1 hPa 0,0 l/m 6,8 km/h (2 Bft) S 180 12,2 C 15,3 C
17.06.2012 01:16 15,2 C 82 % 1017,1 hPa 0,0 l/m 4,7 km/h (1 Bft) S 180 12,1 C 15,2 C
17.06.2012 01:21 15,1 C 82 % 1017,1 hPa 0,0 l/m 3,2 km/h (1 Bft) SW 225 12,0 C 15,1 C
17.06.2012 01:26 15,1 C 82 % 1017,1 hPa 0,0 l/m 3,6 km/h (1 Bft) S-SW 202 12,0 C 15,1 C
17.06.2012 01:31 14,9 C 82 % 1017,0 hPa 0,0 l/m 0,0 km/h (0 Bft) S-SO 157 11,9 C 14,9 C
17.06.2012 01:36 14,9 C 82 % 1017,0 hPa 0,0 l/m 7,2 km/h (2 Bft) S-SW 202 11,9 C 14,9 C
17.06.2012 01:41 14,9 C 82 % 1017,2 hPa 0,0 l/m 4,3 km/h (1 Bft) SW 225 11,9 C 14,9 C
17.06.2012 01:46 14,9 C 82 % 1017,2 hPa 0,0 l/m 3,2 km/h (1 Bft) SW 225 11,9 C 14,9 C
17.06.2012 01:51 14,9 C 82 % 1017,2 hPa 0,0 l/m 1,8 km/h (1 Bft) S-SW 202 11,9 C 14,9 C
17.06.2012 01:56 14,8 C 82 % 1017,2 hPa 0,0 l/m 2,5 km/h (1 Bft) S-SO 157 11,8 C 14,8 C
17.06.2012 02:01 14,8 C 82 % 1017,3 hPa 0,0 l/m 8,3 km/h (2 Bft) SW 225 11,8 C 14,8 C
17.06.2012 02:06 14,7 C 82 % 1017,2 hPa 0,0 l/m 8,3 km/h (2 Bft) SW 225 11,7 C 14,7 C
17.06.2012 02:11 14,6 C 82 % 1017,3 hPa 0,0 l/m 0,0 km/h (0 Bft) SW 225 11,6 C 14,6 C
17.06.2012 02:16 14,6 C 82 % 1017,4 hPa 0,0 l/m 5,0 km/h (1 Bft) W 270 11,6 C 14,6 C
17.06.2012 02:21 14,5 C 82 % 1017,4 hPa 0,0 l/m 4,0 km/h (1 Bft) SW 225 11,5 C 14,5 C
17.06.2012 02:26 14,4 C 82 % 1017,5 hPa 0,0 l/m 5,0 km/h (1 Bft) W-SW 247 11,4 C 14,4 C
17.06.2012 02:31 14,4 C 81 % 1017,6 hPa 0,0 l/m 4,7 km/h (1 Bft) SW 225 11,2 C 14,4 C
17.06.2012 02:36 14,4 C 81 % 1017,6 hPa 0,0 l/m 7,6 km/h (2 Bft) W-SW 247 11,2 C 14,4 C
17.06.2012 02:41 14,3 C 81 % 1017,6 hPa 0,0 l/m 4,0 km/h (1 Bft) SW 225 11,1 C 14,3 C
17.06.2012 02:46 14,3 C 81 % 1017,6 hPa 0,0 l/m 7,6 km/h (2 Bft) SW 225 11,1 C 14,3 C
17.06.2012 02:51 14,2 C 81 % 1017,8 hPa 0,0 l/m 5,8 km/h (2 Bft) S-SW 202 11,0 C 14,2 C
17.06.2012 02:56 14,1 C 81 % 1017,6 hPa 0,0 l/m 4,0 km/h (1 Bft) SW 225 10,9 C 14,1 C
17.06.2012 03:01 14,1 C 82 % 1017,8 hPa 0,0 l/m 5,4 km/h (1 Bft) S-SW 202 11,1 C 14,1 C
17.06.2012 03:06 14,0 C 82 % 1017,6 hPa 0,0 l/m 4,0 km/h (1 Bft) S-SW 202 11,0 C 14,0 C
17.06.2012 03:11 13,9 C 82 % 1017,6 hPa 0,0 l/m 2,9 km/h (1 Bft) W-SW 247 10,9 C 13,9 C
17.06.2012 03:16 13,9 C 82 % 1017,6 hPa 0,0 l/m 3,6 km/h (1 Bft) S 180 10,9 C 13,9 C
17.06.2012 03:21 13,8 C 82 % 1017,8 hPa 0,0 l/m 6,5 km/h (2 Bft) S-SW 202 10,8 C 13,8 C
17.06.2012 03:26 13,8 C 82 % 1017,8 hPa 0,0 l/m 2,2 km/h (1 Bft) NW 315 10,8 C 13,8 C
17.06.2012 03:31 13,7 C 82 % 1017,8 hPa 0,0 l/m 3,6 km/h (1 Bft) S-SW 202 10,7 C 13,7 C
17.06.2012 03:36 13,6 C 82 % 1017,8 hPa 0,0 l/m 5,0 km/h (1 Bft) SW 225 10,6 C 13,6 C
17.06.2012 03:41 13,6 C 82 % 1017,7 hPa 0,0 l/m 3,2 km/h (1 Bft) SW 225 10,6 C 13,6 C
17.06.2012 03:46 13,6 C 82 % 1017,6 hPa 0,0 l/m 2,9 km/h (1 Bft) W 270 10,6 C 13,6 C
17.06.2012 03:51 13,5 C 82 % 1017,5 hPa 0,0 l/m 2,5 km/h (1 Bft) W-SW 247 10,5 C 13,5 C
17.06.2012 03:56 13,5 C 82 % 1017,5 hPa 0,0 l/m 4,0 km/h (1 Bft) S-SO 157 10,5 C 13,5 C
17.06.2012 04:01 13,5 C 82 % 1017,5 hPa 0,0 l/m 4,3 km/h (1 Bft) SW 225 10,5 C 13,5 C
17.06.2012 04:06 13,4 C 82 % 1017,7 hPa 0,0 l/m 4,7 km/h (1 Bft) W-SW 247 10,4 C 13,4 C
17.06.2012 04:11 13,4 C 82 % 1017,9 hPa 0,0 l/m 6,8 km/h (2 Bft) SW 225 10,4 C 13,4 C
17.06.2012 04:16 13,3 C 82 % 1017,9 hPa 0,0 l/m 6,1 km/h (2 Bft) SW 225 10,3 C 13,3 C
17.06.2012 04:21 13,3 C 82 % 1018,1 hPa 0,0 l/m 9,0 km/h (2 Bft) W-SW 247 10,3 C 13,3 C
17.06.2012 04:26 13,3 C 82 % 1018,1 hPa 0,0 l/m 9,7 km/h (2 Bft) SW 225 10,3 C 13,3 C
17.06.2012 04:31 13,2 C 82 % 1018,3 hPa 0,0 l/m 9,7 km/h (2 Bft) S-SW 202 10,2 C 13,2 C
17.06.2012 04:36 13,2 C 82 % 1018,1 hPa 0,0 l/m 4,0 km/h (1 Bft) W 270 10,2 C 13,2 C
17.06.2012 04:41 13,2 C 82 % 1018,1 hPa 0,0 l/m 4,7 km/h (1 Bft) W 270 10,2 C 13,2 C
17.06.2012 04:46 13,1 C 82 % 1018,2 hPa 0,0 l/m 2,5 km/h (1 Bft) S-SW 202 10,1 C 13,1 C
17.06.2012 04:51 13,1 C 83 % 1018,2 hPa 0,0 l/m 0,0 km/h (0 Bft) S-SW 202 10,3 C 13,1 C
17.06.2012 04:56 13,1 C 83 % 1018,3 hPa 0,0 l/m 4,3 km/h (1 Bft) S-SW 202 10,3 C 13,1 C
17.06.2012 05:01 13,1 C 83 % 1018,3 hPa 0,0 l/m 0,0 km/h (0 Bft) W-SW 247 10,3 C 13,1 C
17.06.2012 05:06 13,1 C 83 % 1018,3 hPa 0,0 l/m 4,3 km/h (1 Bft) S-SO 157 10,3 C 13,1 C
17.06.2012 05:11 13,0 C 83 % 1018,4 hPa 0,0 l/m 3,6 km/h (1 Bft) W-SW 247 10,2 C 13,0 C
17.06.2012 05:16 12,9 C 83 % 1018,4 hPa 0,0 l/m 2,5 km/h (1 Bft) S-SW 202 10,1 C 12,9 C
17.06.2012 05:21 12,9 C 83 % 1018,5 hPa 0,0 l/m 4,0 km/h (1 Bft) S-SW 202 10,1 C 12,9 C
17.06.2012 05:26 12,9 C 83 % 1018,5 hPa 0,0 l/m 6,1 km/h (2 Bft) S-SW 202 10,1 C 12,9 C
17.06.2012 05:31 12,9 C 83 % 1018,5 hPa 0,0 l/m 4,3 km/h (1 Bft) SW 225 10,1 C 12,9 C
17.06.2012 05:36 12,9 C 83 % 1018,5 hPa 0,0 l/m 2,9 km/h (1 Bft) SW 225 10,1 C 12,9 C
17.06.2012 05:41 13,1 C 83 % 1018,6 hPa 0,0 l/m 5,8 km/h (2 Bft) SW 225 10,3 C 13,1 C
17.06.2012 05:46 13,3 C 84 % 1018,5 hPa 0,0 l/m 4,0 km/h (1 Bft) SW 225 10,7 C 13,3 C
17.06.2012 05:51 13,8 C 85 % 1018,6 hPa 0,0 l/m 2,5 km/h (1 Bft) W 270 11,3 C 13,8 C
17.06.2012 05:56 14,2 C 83 % 1018,6 hPa 0,0 l/m 6,1 km/h (2 Bft) W-SW 247 11,4 C 14,2 C
17.06.2012 06:01 14,7 C 81 % 1018,6 hPa 0,0 l/m 10,8 km/h (2 Bft) SW 225 11,5 C 14,7 C
17.06.2012 06:06 14,9 C 80 % 1018,6 hPa 0,0 l/m 16,9 km/h (3 Bft) W-SW 247 11,5 C 14,9 C
17.06.2012 06:11 15,2 C 78 % 1018,7 hPa 0,0 l/m 15,8 km/h (3 Bft) W 270 11,4 C 15,2 C
17.06.2012 06:16 15,4 C 78 % 1018,7 hPa 0,0 l/m 15,8 km/h (3 Bft) W-SW 247 11,6 C 15,4 C
17.06.2012 06:21 15,6 C 77 % 1018,9 hPa 0,0 l/m 15,5 km/h (3 Bft) SW 225 11,6 C 15,6 C
17.06.2012 06:26 15,7 C 77 % 1018,9 hPa 0,0 l/m 6,1 km/h (2 Bft) W 270 11,7 C 15,7 C
17.06.2012 06:31 15,8 C 76 % 1018,9 hPa 0,0 l/m 10,8 km/h (2 Bft) SW 225 11,6 C 15,8 C
17.06.2012 06:36 15,5 C 76 % 1019,0 hPa 0,0 l/m 5,8 km/h (2 Bft) S-SW 202 11,3 C 15,5 C
17.06.2012 06:41 15,3 C 76 % 1019,2 hPa 0,0 l/m 13,7 km/h (3 Bft) S-SW 202 11,1 C 15,3 C
17.06.2012 06:46 15,2 C 77 % 1019,3 hPa 0,0 l/m 6,1 km/h (2 Bft) S-SW 202 11,2 C 15,2 C
17.06.2012 06:51 14,9 C 77 % 1019,3 hPa 0,0 l/m 7,2 km/h (2 Bft) SW 225 10,9 C 14,9 C
17.06.2012 06:56 14,9 C 78 % 1019,3 hPa 0,0 l/m 6,8 km/h (2 Bft) W 270 11,1 C 14,9 C
17.06.2012 07:01 14,9 C 78 % 1019,4 hPa 0,0 l/m 7,2 km/h (2 Bft) S-SW 202 11,1 C 14,9 C
17.06.2012 07:06 14,9 C 78 % 1019,5 hPa 0,0 l/m 9,4 km/h (2 Bft) S-SW 202 11,1 C 14,9 C
17.06.2012 07:11 14,9 C 79 % 1019,3 hPa 0,0 l/m 6,8 km/h (2 Bft) SO 135 11,3 C 14,9 C
17.06.2012 07:16 14,9 C 79 % 1019,4 hPa 0,0 l/m 8,3 km/h (2 Bft) S 180 11,3 C 14,9 C
17.06.2012 07:21 15,1 C 79 % 1019,5 hPa 0,0 l/m 4,7 km/h (1 Bft) SW 225 11,5 C 15,1 C
17.06.2012 07:26 15,3 C 79 % 1019,6 hPa 0,0 l/m 6,1 km/h (2 Bft) S-SO 157 11,7 C 15,3 C
17.06.2012 07:31 15,6 C 79 % 1019,6 hPa 0,0 l/m 2,9 km/h (1 Bft) S-SW 202 12,0 C 15,6 C
17.06.2012 07:36 15,9 C 78 % 1019,8 hPa 0,0 l/m 4,7 km/h (1 Bft) SW 225 12,1 C 15,9 C
17.06.2012 07:41 16,1 C 77 % 1019,7 hPa 0,0 l/m 5,8 km/h (2 Bft) S-SW 202 12,1 C 16,1 C
17.06.2012 07:46 16,2 C 77 % 1019,7 hPa 0,0 l/m 4,3 km/h (1 Bft) S 180 12,2 C 16,2 C
17.06.2012 07:51 16,3 C 77 % 1019,8 hPa 0,0 l/m 11,5 km/h (2 Bft) S-SW 202 12,3 C 16,3 C
17.06.2012 07:56 16,3 C 77 % 1019,9 hPa 0,0 l/m 4,0 km/h (1 Bft) SW 225 12,3 C 16,3 C
17.06.2012 08:01 16,7 C 77 % 1019,9 hPa 0,0 l/m 7,6 km/h (2 Bft) S 180 12,6 C 16,7 C
17.06.2012 08:06 16,8 C 76 % 1019,9 hPa 0,0 l/m 3,2 km/h (1 Bft) W 270 12,5 C 16,8 C
17.06.2012 08:11 16,9 C 75 % 1020,0 hPa 0,0 l/m 11,2 km/h (2 Bft) S-SW 202 12,4 C 16,9 C
17.06.2012 08:16 16,8 C 75 % 1020,0 hPa 0,0 l/m 9,4 km/h (2 Bft) S-SW 202 12,3 C 16,8 C
17.06.2012 08:21 16,8 C 75 % 1020,1 hPa 0,0 l/m 12,2 km/h (2 Bft) W-SW 247 12,3 C 16,8 C
17.06.2012 08:26 16,8 C 75 % 1020,1 hPa 0,0 l/m 6,5 km/h (2 Bft) W 270 12,3 C 16,8 C
17.06.2012 08:31 16,8 C 75 % 1020,3 hPa 0,0 l/m 13,0 km/h (3 Bft) S 180 12,3 C 16,8 C
17.06.2012 08:36 16,9 C 75 % 1020,2 hPa 0,0 l/m 13,0 km/h (3 Bft) SW 225 12,4 C 16,9 C
17.06.2012 08:41 17,1 C 75 % 1020,1 hPa 0,0 l/m 9,4 km/h (2 Bft) W-SW 247 12,6 C 17,1 C
17.06.2012 08:46 17,5 C 74 % 1020,3 hPa 0,0 l/m 10,1 km/h (2 Bft) S 180 12,8 C 17,5 C
17.06.2012 08:51 17,6 C 73 % 1020,3 hPa 0,0 l/m 13,3 km/h (3 Bft) S-SO 157 12,7 C 17,6 C
17.06.2012 08:56 17,8 C 73 % 1020,3 hPa 0,0 l/m 4,0 km/h (1 Bft) S-SW 202 12,9 C 17,8 C
17.06.2012 09:01 18,1 C 73 % 1020,4 hPa 0,0 l/m 11,9 km/h (2 Bft) W-SW 247 13,2 C 18,1 C
17.06.2012 09:06 18,3 C 72 % 1020,4 hPa 0,0 l/m 13,7 km/h (3 Bft) W 270 13,2 C 18,3 C
17.06.2012 09:11 18,5 C 72 % 1020,5 hPa 0,0 l/m 6,8 km/h (2 Bft) SW 225 13,4 C 18,5 C
17.06.2012 09:16 18,7 C 71 % 1020,5 hPa 0,0 l/m 19,8 km/h (3 Bft) S-SW 202 13,3 C 18,7 C
17.06.2012 09:21 18,6 C 70 % 1020,7 hPa 0,0 l/m 26,3 km/h (4 Bft) S-SW 202 13,0 C 18,6 C
17.06.2012 09:26 18,6 C 69 % 1020,7 hPa 0,0 l/m 20,5 km/h (4 Bft) SW 225 12,8 C 18,6 C
17.06.2012 09:31 18,6 C 69 % 1020,7 hPa 0,0 l/m 21,6 km/h (4 Bft) W 270 12,8 C 18,6 C
17.06.2012 09:36 18,5 C 69 % 1020,7 hPa 0,0 l/m 20,5 km/h (4 Bft) W-SW 247 12,7 C 18,5 C
17.06.2012 09:41 18,4 C 69 % 1020,9 hPa 0,0 l/m 16,2 km/h (3 Bft) W 270 12,6 C 18,4 C
17.06.2012 09:46 18,3 C 70 % 1020,9 hPa 0,0 l/m 19,4 km/h (3 Bft) S-SW 202 12,7 C 18,3 C
17.06.2012 09:51 18,3 C 70 % 1020,8 hPa 0,0 l/m 6,1 km/h (2 Bft) S 180 12,7 C 18,3 C
17.06.2012 09:56 18,6 C 70 % 1020,8 hPa 0,0 l/m 19,4 km/h (3 Bft) SW 225 13,0 C 18,6 C
17.06.2012 10:01 18,9 C 70 % 1020,9 hPa 0,0 l/m 12,2 km/h (2 Bft) W 270 13,3 C 18,9 C
17.06.2012 10:06 19,1 C 67 % 1020,8 hPa 0,0 l/m 4,0 km/h (1 Bft) W-SW 247 12,8 C 19,1 C
17.06.2012 10:11 19,1 C 67 % 1020,8 hPa 0,0 l/m 22,7 km/h (4 Bft) SW 225 12,8 C 19,1 C
17.06.2012 10:16 19,0 C 67 % 1020,9 hPa 0,0 l/m 13,0 km/h (3 Bft) S-SO 157 12,7 C 19,0 C
17.06.2012 10:21 18,9 C 67 % 1020,9 hPa 0,0 l/m 16,6 km/h (3 Bft) W 270 12,6 C 18,9 C
17.06.2012 10:26 19,0 C 67 % 1021,0 hPa 0,0 l/m 14,8 km/h (3 Bft) W-SW 247 12,7 C 19,0 C
17.06.2012 10:31 19,0 C 67 % 1021,0 hPa 0,0 l/m 9,4 km/h (2 Bft) SW 225 12,7 C 19,0 C
17.06.2012 10:36 19,1 C 67 % 1021,0 hPa 0,0 l/m 11,2 km/h (2 Bft) S-SW 202 12,8 C 19,1 C
17.06.2012 10:41 19,2 C 67 % 1020,9 hPa 0,0 l/m 10,1 km/h (2 Bft) S-SW 202 12,9 C 19,2 C
17.06.2012 10:46 19,3 C 66 % 1021,0 hPa 0,0 l/m 18,0 km/h (3 Bft) W 270 12,8 C 19,3 C
17.06.2012 10:51 19,2 C 66 % 1021,0 hPa 0,0 l/m 10,4 km/h (2 Bft) W 270 12,7 C 19,2 C
17.06.2012 10:56 19,1 C 66 % 1021,0 hPa 0,0 l/m 12,6 km/h (3 Bft) S-SW 202 12,6 C 19,1 C
17.06.2012 11:01 19,1 C 66 % 1021,1 hPa 0,0 l/m 21,2 km/h (4 Bft) W-SW 247 12,6 C 19,1 C
17.06.2012 11:06 19,1 C 67 % 1021,1 hPa 0,0 l/m 16,9 km/h (3 Bft) W-SW 247 12,8 C 19,1 C
17.06.2012 11:11 19,4 C 66 % 1021,1 hPa 0,0 l/m 16,2 km/h (3 Bft) W-SW 247 12,9 C 19,4 C
17.06.2012 11:16 19,8 C 65 % 1021,1 hPa 0,0 l/m 15,8 km/h (3 Bft) W-SW 247 13,0 C 19,8 C
17.06.2012 11:21 20,1 C 63 % 1021,1 hPa 0,0 l/m 17,3 km/h (3 Bft) S-SW 202 12,8 C 20,1 C
17.06.2012 11:26 20,4 C 61 % 1021,1 hPa 0,0 l/m 20,5 km/h (4 Bft) W-SW 247 12,6 C 20,4 C
17.06.2012 11:31 20,6 C 59 % 1021,2 hPa 0,0 l/m 19,4 km/h (3 Bft) W-SW 247 12,3 C 20,6 C
17.06.2012 11:36 20,8 C 58 % 1021,4 hPa 0,0 l/m 19,1 km/h (3 Bft) W-SW 247 12,2 C 20,8 C
17.06.2012 11:41 20,9 C 58 % 1021,3 hPa 0,0 l/m 7,2 km/h (2 Bft) W 270 12,3 C 20,9 C
17.06.2012 11:46 21,0 C 58 % 1021,4 hPa 0,0 l/m 23,0 km/h (4 Bft) W-SW 247 12,4 C 21,0 C
17.06.2012 11:51 21,1 C 57 % 1021,4 hPa 0,0 l/m 23,4 km/h (4 Bft) W-SW 247 12,2 C 21,1 C
17.06.2012 11:56 21,1 C 56 % 1021,3 hPa 0,0 l/m 19,8 km/h (3 Bft) W 270 12,0 C 21,1 C
17.06.2012 12:01 21,3 C 56 % 1021,3 hPa 0,0 l/m 19,8 km/h (3 Bft) S 180 12,2 C 21,3 C
17.06.2012 12:06 21,4 C 54 % 1021,2 hPa 0,0 l/m 16,2 km/h (3 Bft) W-SW 247 11,7 C 21,4 C
17.06.2012 12:11 21,6 C 53 % 1021,4 hPa 0,0 l/m 8,3 km/h (2 Bft) W 270 11,6 C 21,6 C
17.06.2012 12:16 21,8 C 53 % 1021,4 hPa 0,0 l/m 27,7 km/h (4 Bft) W-SW 247 11,8 C 21,8 C
17.06.2012 12:21 21,8 C 53 % 1021,4 hPa 0,0 l/m 14,4 km/h (3 Bft) W-SW 247 11,8 C 21,8 C
17.06.2012 12:26 21,9 C 53 % 1021,4 hPa 0,0 l/m 30,2 km/h (5 Bft) SW 225 11,9 C 21,9 C
17.06.2012 12:31 21,9 C 51 % 1021,5 hPa 0,0 l/m 8,3 km/h (2 Bft) SW 225 11,3 C 21,9 C
17.06.2012 12:36 22,1 C 52 % 1021,5 hPa 0,0 l/m 11,2 km/h (2 Bft) W-NW 292 11,8 C 22,1 C
17.06.2012 12:41 22,3 C 51 % 1021,5 hPa 0,0 l/m 19,1 km/h (3 Bft) W 270 11,7 C 22,3 C
17.06.2012 12:46 22,3 C 50 % 1021,4 hPa 0,0 l/m 18,7 km/h (3 Bft) NW 315 11,4 C 22,3 C
17.06.2012 12:51 22,3 C 50 % 1021,5 hPa 0,0 l/m 29,2 km/h (5 Bft) W-SW 247 11,4 C 22,3 C
17.06.2012 12:56 22,3 C 49 % 1021,4 hPa 0,0 l/m 14,8 km/h (3 Bft) W-SW 247 11,1 C 22,3 C
17.06.2012 13:01 22,4 C 49 % 1021,4 hPa 0,0 l/m 15,1 km/h (3 Bft) W 270 11,2 C 22,4 C
17.06.2012 13:06 22,5 C 48 % 1021,3 hPa 0,0 l/m 10,4 km/h (2 Bft) W-SW 247 10,9 C 22,5 C
17.06.2012 13:11 22,6 C 48 % 1021,4 hPa 0,0 l/m 11,5 km/h (2 Bft) SW 225 11,0 C 22,6 C
17.06.2012 13:16 22,5 C 47 % 1021,4 hPa 0,0 l/m 18,4 km/h (3 Bft) W-SW 247 10,6 C 22,5 C
17.06.2012 13:21 22,5 C 47 % 1021,4 hPa 0,0 l/m 5,0 km/h (1 Bft) W 270 10,6 C 22,5 C
17.06.2012 13:26 22,5 C 47 % 1021,5 hPa 0,0 l/m 9,4 km/h (2 Bft) W-SW 247 10,6 C 22,5 C
17.06.2012 13:31 22,3 C 48 % 1021,6 hPa 0,0 l/m 8,3 km/h (2 Bft) W-SW 247 10,8 C 22,3 C
17.06.2012 13:36 21,9 C 48 % 1021,6 hPa 0,0 l/m 7,2 km/h (2 Bft) W 270 10,4 C 21,9 C
17.06.2012 13:41 21,8 C 49 % 1021,6 hPa 0,0 l/m 10,8 km/h (2 Bft) S-SW 202 10,6 C 21,8 C
17.06.2012 13:46 21,5 C 50 % 1021,6 hPa 0,0 l/m 8,6 km/h (2 Bft) W 270 10,6 C 21,5 C
17.06.2012 13:51 21,5 C 50 % 1021,6 hPa 0,0 l/m 7,2 km/h (2 Bft) W-NW 292 10,6 C 21,5 C
17.06.2012 13:56 21,5 C 50 % 1021,7 hPa 0,0 l/m 5,0 km/h (1 Bft) W 270 10,6 C 21,5 C
17.06.2012 14:01 21,3 C 50 % 1021,6 hPa 0,0 l/m 8,6 km/h (2 Bft) W-NW 292 10,4 C 21,3 C
17.06.2012 14:06 21,5 C 52 % 1021,6 hPa 0,0 l/m 6,5 km/h (2 Bft) SW 225 11,2 C 21,5 C
17.06.2012 14:11 22,1 C 51 % 1021,6 hPa 0,0 l/m 4,3 km/h (1 Bft) W-NW 292 11,5 C 22,1 C
17.06.2012 14:16 22,4 C 50 % 1021,5 hPa 0,0 l/m 21,6 km/h (4 Bft) SW 225 11,5 C 22,4 C
17.06.2012 14:21 22,5 C 48 % 1021,5 hPa 0,0 l/m 14,8 km/h (3 Bft) SW 225 10,9 C 22,5 C
17.06.2012 14:26 22,4 C 48 % 1021,5 hPa 0,0 l/m 14,4 km/h (3 Bft) W-SW 247 10,8 C 22,4 C
17.06.2012 14:31 22,7 C 48 % 1021,5 hPa 0,0 l/m 8,6 km/h (2 Bft) SW 225 11,1 C 22,7 C
17.06.2012 14:36 22,8 C 48 % 1021,5 hPa 0,0 l/m 22,7 km/h (4 Bft) W-SW 247 11,2 C 22,8 C
17.06.2012 14:41 22,6 C 47 % 1021,5 hPa 0,0 l/m 26,6 km/h (4 Bft) W-SW 247 10,7 C 22,6 C
17.06.2012 14:46 22,3 C 47 % 1021,5 hPa 0,0 l/m 10,1 km/h (2 Bft) W-SW 247 10,4 C 22,3 C
17.06.2012 14:51 22,1 C 48 % 1021,7 hPa 0,0 l/m 23,0 km/h (4 Bft) W-SW 247 10,6 C 22,1 C
17.06.2012 14:56 21,8 C 48 % 1021,9 hPa 0,0 l/m 13,0 km/h (3 Bft) W 270 10,3 C 21,8 C
17.06.2012 15:01 21,8 C 49 % 1021,9 hPa 0,0 l/m 22,3 km/h (4 Bft) W-SW 247 10,6 C 21,8 C
17.06.2012 15:06 22,4 C 49 % 1021,9 hPa 0,0 l/m 15,5 km/h (3 Bft) W-NW 292 11,2 C 22,4 C
17.06.2012 15:11 22,8 C 49 % 1021,9 hPa 0,0 l/m 4,0 km/h (1 Bft) W-NW 292 11,5 C 22,8 C
17.06.2012 15:16 22,6 C 48 % 1022,0 hPa 0,0 l/m 19,8 km/h (3 Bft) W-SW 247 11,0 C 22,6 C
17.06.2012 15:21 22,4 C 49 % 1022,0 hPa 0,0 l/m 5,8 km/h (2 Bft) W-NW 292 11,2 C 22,4 C
17.06.2012 15:26 22,7 C 48 % 1021,9 hPa 0,0 l/m 14,8 km/h (3 Bft) W 270 11,1 C 22,7 C
17.06.2012 15:31 23,0 C 47 % 1021,8 hPa 0,0 l/m 6,8 km/h (2 Bft) W-SW 247 11,1 C 23,0 C
17.06.2012 15:36 23,4 C 47 % 1021,8 hPa 0,0 l/m 16,9 km/h (3 Bft) SW 225 11,4 C 23,4 C
17.06.2012 15:41 23,6 C 45 % 1021,8 hPa 0,0 l/m 12,2 km/h (2 Bft) W-SW 247 11,0 C 23,6 C
17.06.2012 15:46 23,3 C 45 % 1021,6 hPa 0,0 l/m 10,8 km/h (2 Bft) W-SW 247 10,7 C 23,3 C
17.06.2012 15:51 23,4 C 45 % 1021,8 hPa 0,0 l/m 10,4 km/h (2 Bft) W-SW 247 10,8 C 23,4 C
17.06.2012 15:56 23,3 C 46 % 1021,7 hPa 0,0 l/m 13,0 km/h (3 Bft) W-SW 247 11,0 C 23,3 C
17.06.2012 16:01 23,2 C 45 % 1021,8 hPa 0,0 l/m 3,2 km/h (1 Bft) S 180 10,6 C 23,2 C
17.06.2012 16:06 23,3 C 45 % 1021,7 hPa 0,0 l/m 11,2 km/h (2 Bft) SW 225 10,7 C 23,3 C
17.06.2012 16:11 23,3 C 44 % 1021,9 hPa 0,0 l/m 7,6 km/h (2 Bft) W 270 10,4 C 23,3 C
17.06.2012 16:16 23,4 C 44 % 1021,8 hPa 0,0 l/m 8,3 km/h (2 Bft) W 270 10,4 C 23,4 C
17.06.2012 16:21 23,4 C 44 % 1021,7 hPa 0,0 l/m 5,4 km/h (1 Bft) W-NW 292 10,4 C 23,4 C
17.06.2012 16:26 23,5 C 43 % 1021,9 hPa 0,0 l/m 14,8 km/h (3 Bft) W-SW 247 10,2 C 23,5 C
17.06.2012 16:31 23,8 C 42 % 1021,8 hPa 0,0 l/m 10,1 km/h (2 Bft) W 270 10,1 C 23,8 C
17.06.2012 16:36 23,9 C 41 % 1021,7 hPa 0,0 l/m 25,2 km/h (4 Bft) W-SW 247 9,8 C 23,9 C
17.06.2012 16:41 23,7 C 41 % 1021,9 hPa 0,0 l/m 17,3 km/h (3 Bft) SW 225 9,7 C 23,7 C
17.06.2012 16:46 23,4 C 42 % 1021,9 hPa 0,0 l/m 9,7 km/h (2 Bft) W-SW 247 9,7 C 23,4 C
17.06.2012 16:51 23,5 C 41 % 1021,7 hPa 0,0 l/m 7,9 km/h (2 Bft) W-NW 292 9,5 C 23,5 C
17.06.2012 16:56 23,5 C 42 % 1022,0 hPa 0,0 l/m 9,4 km/h (2 Bft) W-SW 247 9,8 C 23,5 C
17.06.2012 17:01 23,4 C 42 % 1021,9 hPa 0,0 l/m 10,4 km/h (2 Bft) W-NW 292 9,7 C 23,4 C
17.06.2012 17:06 23,4 C 42 % 1021,8 hPa 0,0 l/m 5,8 km/h (2 Bft) W-NW 292 9,7 C 23,4 C
17.06.2012 17:11 23,3 C 43 % 1022,0 hPa 0,0 l/m 14,0 km/h (3 Bft) W 270 10,0 C 23,3 C
17.06.2012 17:16 23,2 C 43 % 1022,0 hPa 0,0 l/m 6,5 km/h (2 Bft) W 270 9,9 C 23,2 C
17.06.2012 17:21 23,1 C 43 % 1022,1 hPa 0,0 l/m 5,4 km/h (1 Bft) W-SW 247 9,8 C 23,1 C
17.06.2012 17:26 22,9 C 44 % 1021,9 hPa 0,0 l/m 7,6 km/h (2 Bft) W 270 10,0 C 22,9 C
17.06.2012 17:31 22,9 C 44 % 1022,0 hPa 0,0 l/m 6,8 km/h (2 Bft) S-SW 202 10,0 C 22,9 C
17.06.2012 17:36 22,9 C 44 % 1022,0 hPa 0,0 l/m 8,3 km/h (2 Bft) S-SW 202 10,0 C 22,9 C
17.06.2012 17:41 22,9 C 43 % 1021,8 hPa 0,0 l/m 9,4 km/h (2 Bft) SO 135 9,6 C 22,9 C
17.06.2012 17:46 22,9 C 43 % 1021,9 hPa 0,0 l/m 6,1 km/h (2 Bft) NW 315 9,6 C 22,9 C
17.06.2012 17:51 23,1 C 43 % 1021,8 hPa 0,0 l/m 6,1 km/h (2 Bft) W-SW 247 9,8 C 23,1 C
17.06.2012 17:56 23,2 C 42 % 1021,8 hPa 0,0 l/m 12,6 km/h (3 Bft) W 270 9,6 C 23,2 C
17.06.2012 18:01 23,0 C 42 % 1021,8 hPa 0,0 l/m 10,4 km/h (2 Bft) W 270 9,4 C 23,0 C
17.06.2012 18:06 23,2 C 44 % 1021,8 hPa 0,0 l/m 13,3 km/h (3 Bft) W 270 10,3 C 23,2 C
17.06.2012 18:11 23,6 C 43 % 1021,9 hPa 0,0 l/m 4,3 km/h (1 Bft) W 270 10,3 C 23,6 C
17.06.2012 18:16 23,8 C 43 % 1022,0 hPa 0,0 l/m 11,5 km/h (2 Bft) SW 225 10,5 C 23,8 C
17.06.2012 18:21 23,6 C 43 % 1021,9 hPa 0,0 l/m 10,1 km/h (2 Bft) W-SW 247 10,3 C 23,6 C
17.06.2012 18:26 23,3 C 43 % 1022,0 hPa 0,0 l/m 9,7 km/h (2 Bft) W-SW 247 10,0 C 23,3 C
17.06.2012 18:31 23,1 C 44 % 1022,0 hPa 0,0 l/m 11,5 km/h (2 Bft) W-SW 247 10,2 C 23,1 C
17.06.2012 18:36 23,1 C 44 % 1022,0 hPa 0,0 l/m 5,0 km/h (1 Bft) W-SW 247 10,2 C 23,1 C
17.06.2012 18:41 23,0 C 44 % 1022,0 hPa 0,0 l/m 2,2 km/h (1 Bft) W 270 10,1 C 23,0 C
17.06.2012 18:46 22,9 C 44 % 1022,0 hPa 0,0 l/m 8,3 km/h (2 Bft) W 270 10,0 C 22,9 C
17.06.2012 18:51 22,8 C 45 % 1021,9 hPa 0,0 l/m 4,7 km/h (1 Bft) W-SW 247 10,2 C 22,8 C
17.06.2012 18:56 22,6 C 45 % 1022,0 hPa 0,0 l/m 5,4 km/h (1 Bft) W-SW 247 10,1 C 22,6 C
17.06.2012 19:01 22,6 C 45 % 1022,0 hPa 0,0 l/m 7,2 km/h (2 Bft) SW 225 10,1 C 22,6 C
17.06.2012 19:06 22,7 C 45 % 1022,1 hPa 0,0 l/m 2,5 km/h (1 Bft) W 270 10,1 C 22,7 C
17.06.2012 19:11 22,8 C 46 % 1022,0 hPa 0,0 l/m 5,8 km/h (2 Bft) W-SW 247 10,6 C 22,8 C
17.06.2012 19:16 22,9 C 45 % 1022,1 hPa 0,0 l/m 4,3 km/h (1 Bft) W 270 10,3 C 22,9 C
17.06.2012 19:21 22,9 C 45 % 1022,0 hPa 0,0 l/m 3,2 km/h (1 Bft) W 270 10,3 C 22,9 C
17.06.2012 19:26 22,9 C 45 % 1022,0 hPa 0,0 l/m 2,2 km/h (1 Bft) W-NW 292 10,3 C 22,9 C
17.06.2012 19:31 23,0 C 45 % 1022,1 hPa 0,0 l/m 2,2 km/h (1 Bft) W 270 10,4 C 23,0 C
17.06.2012 19:36 23,0 C 45 % 1022,0 hPa 0,0 l/m 1,1 km/h (1 Bft) W 270 10,4 C 23,0 C
17.06.2012 19:41 22,9 C 46 % 1022,2 hPa 0,0 l/m 3,6 km/h (1 Bft) W 270 10,7 C 22,9 C
17.06.2012 19:46 22,8 C 46 % 1022,2 hPa 0,0 l/m 3,2 km/h (1 Bft) W 270 10,6 C 22,8 C
17.06.2012 19:51 22,8 C 46 % 1022,1 hPa 0,0 l/m 2,2 km/h (1 Bft) W-SW 247 10,6 C 22,8 C
17.06.2012 19:56 22,9 C 46 % 1022,1 hPa 0,0 l/m 2,9 km/h (1 Bft) W 270 10,7 C 22,9 C
17.06.2012 20:01 22,8 C 46 % 1022,2 hPa 0,0 l/m 5,4 km/h (1 Bft) W-SW 247 10,6 C 22,8 C
17.06.2012 20:06 22,8 C 46 % 1022,1 hPa 0,0 l/m 1,4 km/h (1 Bft) W 270 10,6 C 22,8 C
17.06.2012 20:11 22,8 C 46 % 1022,1 hPa 0,0 l/m 0,0 km/h (0 Bft) W 270 10,6 C 22,8 C
17.06.2012 20:16 22,8 C 47 % 1022,1 hPa 0,0 l/m 1,1 km/h (1 Bft) W-SW 247 10,9 C 22,8 C
17.06.2012 20:21 22,6 C 47 % 1022,0 hPa 0,0 l/m 0,0 km/h (0 Bft) W 270 10,7 C 22,6 C
17.06.2012 20:26 22,5 C 48 % 1022,0 hPa 0,0 l/m 0,0 km/h (0 Bft) W 270 10,9 C 22,5 C
17.06.2012 20:31 22,4 C 48 % 1022,1 hPa 0,0 l/m 0,0 km/h (0 Bft) W 270 10,8 C 22,4 C
17.06.2012 20:36 22,3 C 49 % 1022,2 hPa 0,0 l/m 0,0 km/h (0 Bft) W 270 11,1 C 22,3 C
17.06.2012 20:41 22,1 C 49 % 1022,2 hPa 0,0 l/m 1,4 km/h (1 Bft) W-NW 292 10,9 C 22,1 C
17.06.2012 20:46 21,9 C 50 % 1022,2 hPa 0,0 l/m 0,0 km/h (0 Bft) W-NW 292 11,0 C 21,9 C
17.06.2012 20:51 21,8 C 50 % 1022,2 hPa 0,0 l/m 0,0 km/h (0 Bft) W-NW 292 10,9 C 21,8 C
17.06.2012 20:56 21,7 C 51 % 1022,4 hPa 0,0 l/m 0,0 km/h (0 Bft) W-NW 292 11,1 C 21,7 C
17.06.2012 21:01 21,5 C 52 % 1022,5 hPa 0,0 l/m 0,0 km/h (0 Bft) W-NW 292 11,2 C 21,5 C
17.06.2012 21:06 21,3 C 52 % 1022,2 hPa 0,0 l/m 0,0 km/h (0 Bft) W-NW 292 11,0 C 21,3 C
17.06.2012 21:11 21,1 C 52 % 1022,3 hPa 0,0 l/m 0,0 km/h (0 Bft) W-NW 292 10,9 C 21,1 C
17.06.2012 21:16 20,8 C 53 % 1022,4 hPa 0,0 l/m 0,0 km/h (0 Bft) W-NW 292 10,9 C 20,8 C
17.06.2012 21:21 20,6 C 53 % 1022,5 hPa 0,0 l/m 0,0 km/h (0 Bft) W-NW 292 10,7 C 20,6 C
17.06.2012 21:26 20,5 C 54 % 1022,4 hPa 0,0 l/m 0,0 km/h (0 Bft) W-NW 292 10,9 C 20,5 C
17.06.2012 21:31 20,3 C 55 % 1022,3 hPa 0,0 l/m 0,0 km/h (0 Bft) W-NW 292 11,0 C 20,3 C
17.06.2012 21:36 20,1 C 56 % 1022,3 hPa 0,0 l/m 0,0 km/h (0 Bft) W 270 11,0 C 20,1 C
17.06.2012 21:41 20,0 C 57 % 1022,4 hPa 0,0 l/m 0,0 km/h (0 Bft) W-SW 247 11,2 C 20,0 C
17.06.2012 21:46 19,9 C 57 % 1022,5 hPa 0,0 l/m 0,0 km/h (0 Bft) W-SW 247 11,1 C 19,9 C
17.06.2012 21:51 19,8 C 58 % 1022,4 hPa 0,0 l/m 0,0 km/h (0 Bft) W-SW 247 11,3 C 19,8 C
17.06.2012 21:56 19,6 C 58 % 1022,5 hPa 0,0 l/m 0,0 km/h (0 Bft) W-SW 247 11,1 C 19,6 C
17.06.2012 22:01 19,5 C 59 % 1022,6 hPa 0,0 l/m 0,0 km/h (0 Bft) W-SW 247 11,3 C 19,5 C
17.06.2012 22:06 19,3 C 59 % 1022,6 hPa 0,0 l/m 0,0 km/h (0 Bft) W-SW 247 11,1 C 19,3 C
17.06.2012 22:11 19,2 C 60 % 1022,6 hPa 0,0 l/m 0,0 km/h (0 Bft) W-SW 247 11,2 C 19,2 C
17.06.2012 22:16 18,9 C 60 % 1022,5 hPa 0,0 l/m 0,0 km/h (0 Bft) W-SW 247 11,0 C 18,9 C
17.06.2012 22:21 18,8 C 60 % 1022,5 hPa 0,0 l/m 0,0 km/h (0 Bft) W-SW 247 10,9 C 18,8 C
17.06.2012 22:26 18,6 C 60 % 1022,6 hPa 0,0 l/m 0,0 km/h (0 Bft) S 180 10,7 C 18,6 C
17.06.2012 22:31 18,5 C 60 % 1022,6 hPa 0,0 l/m 0,0 km/h (0 Bft) S-SO 157 10,6 C 18,5 C
17.06.2012 22:36 18,4 C 61 % 1022,6 hPa 0,0 l/m 0,0 km/h (0 Bft) S-SO 157 10,7 C 18,4 C
17.06.2012 22:41 18,3 C 61 % 1022,6 hPa 0,0 l/m 0,0 km/h (0 Bft) S-SO 157 10,6 C 18,3 C
17.06.2012 22:46 18,2 C 61 % 1022,6 hPa 0,0 l/m 0,0 km/h (0 Bft) S-SO 157 10,6 C 18,2 C
17.06.2012 22:51 18,1 C 61 % 1022,6 hPa 0,0 l/m 0,0 km/h (0 Bft) S-SO 157 10,5 C 18,1 C
17.06.2012 22:56 17,9 C 62 % 1022,5 hPa 0,0 l/m 0,0 km/h (0 Bft) S-SO 157 10,5 C 17,9 C
17.06.2012 23:01 17,8 C 62 % 1022,5 hPa 0,0 l/m 0,0 km/h (0 Bft) S-SO 157 10,4 C 17,8 C
17.06.2012 23:06 17,6 C 63 % 1022,5 hPa 0,0 l/m 0,0 km/h (0 Bft) S-SO 157 10,5 C 17,6 C
17.06.2012 23:11 17,6 C 63 % 1022,5 hPa 0,0 l/m 4,0 km/h (1 Bft) O 90 10,5 C 17,6 C
17.06.2012 23:16 17,4 C 63 % 1022,4 hPa 0,0 l/m 0,0 km/h (0 Bft) O-SO 112 10,3 C 17,4 C
17.06.2012 23:21 17,3 C 64 % 1022,5 hPa 0,0 l/m 1,8 km/h (1 Bft) O-SO 112 10,4 C 17,3 C
17.06.2012 23:26 17,1 C 64 % 1022,5 hPa 0,0 l/m 2,9 km/h (1 Bft) O 90 10,2 C 17,1 C
17.06.2012 23:31 16,9 C 65 % 1022,5 hPa 0,0 l/m 0,0 km/h (0 Bft) O 90 10,3 C 16,9 C
17.06.2012 23:36 16,9 C 65 % 1022,5 hPa 0,0 l/m 0,0 km/h (0 Bft) O 90 10,3 C 16,9 C
17.06.2012 23:41 16,9 C 65 % 1022,5 hPa 0,0 l/m 0,0 km/h (0 Bft) O 90 10,3 C 16,9 C
17.06.2012 23:46 17,1 C 65 % 1022,5 hPa 0,0 l/m 0,0 km/h (0 Bft) O-SO 112 10,5 C 17,1 C
17.06.2012 23:51 17,2 C 66 % 1022,4 hPa 0,0 l/m 0,0 km/h (0 Bft) O 90 10,8 C 17,2 C
17.06.2012 23:56 17,2 C 65 % 1022,6 hPa 0,0 l/m 3,6 km/h (1 Bft) O-SO 112 10,6 C 17,2 C
_ Min-Zeit 05:16 16:36 00:06 - 01:31 - - 18:01 05:16
Minimum _ 12,9 C 41 % 1015,8 hPa - 0,0 km/h (0 Bft) - - 9,4 C 12,9 C
_ Max-Zeit 16:36 05:51 22:01 00:01 12:26 - - 09:11 16:36
Maximum _ 23,9 C 85 % 1022,6 hPa 0,0 l/m 30,2 km/h
SW (5 Bft)
- - 13,4 C 23,9 C
Durchschnitt _ 18,8 C 63 % 1020,5 hPa #0,0 l/m 7,9 km/h (2 Bft) W-SW - 11,2 C 18,8 C
(c) by David Heller